createdAt,value
2023-04-27T00:02:21.049Z,22.00
2023-04-27T00:04:48.352Z,21.40
2023-04-27T00:07:17.744Z,26.60
2023-04-27T00:09:44.479Z,25.60
2023-04-27T00:12:11.624Z,21.60
2023-04-27T00:14:38.180Z,28.70
2023-04-27T00:17:04.758Z,21.30
2023-04-27T00:19:31.854Z,22.60
2023-04-27T00:22:01.181Z,24.60
2023-04-27T00:24:28.101Z,23.60
2023-04-27T00:26:54.639Z,24.00
2023-04-27T00:29:21.210Z,26.70
2023-04-27T00:31:48.886Z,22.70
2023-04-27T00:34:15.345Z,25.20
2023-04-27T00:36:49.528Z,21.10
2023-04-27T00:39:16.428Z,26.00
2023-04-27T00:41:43.315Z,25.20
2023-04-27T00:44:12.259Z,26.30
2023-04-27T00:46:38.935Z,26.60
2023-04-27T00:49:07.389Z,25.10
2023-04-27T00:51:37.536Z,29.00
2023-04-27T00:54:07.026Z,29.50
2023-04-27T00:56:39.004Z,25.10
2023-04-27T00:59:10.340Z,19.80
2023-04-27T01:01:39.152Z,25.10
2023-04-27T01:04:06.272Z,25.60
2023-04-27T01:06:33.767Z,27.90
2023-04-27T01:09:01.885Z,26.70
2023-04-27T01:46:16.399Z,25.40
2023-04-27T01:48:45.951Z,25.70
2023-04-27T01:51:14.807Z,27.20
2023-04-27T01:53:41.719Z,25.30
2023-04-27T01:56:09.674Z,26.40
2023-04-27T01:58:38.343Z,27.00
2023-04-27T02:01:04.871Z,30.70
2023-04-27T02:03:33.905Z,30.20
2023-04-27T02:06:03.149Z,27.60
2023-04-27T02:08:34.171Z,22.60
2023-04-27T02:11:03.171Z,25.10
2023-04-27T02:13:29.737Z,29.10
2023-04-27T02:16:02.635Z,28.20
2023-04-27T02:18:33.032Z,29.60
2023-04-27T02:20:59.426Z,27.80
2023-04-27T02:23:31.044Z,27.20
2023-04-27T02:26:05.531Z,31.90
2023-04-27T02:28:32.313Z,26.20
2023-04-27T02:31:02.625Z,28.50
2023-04-27T02:33:29.332Z,28.60
2023-04-27T02:35:57.252Z,31.60
2023-04-27T02:38:23.859Z,27.50
2023-04-27T02:40:56.189Z,28.60
2023-04-27T02:43:25.098Z,27.30
2023-04-27T02:45:56.602Z,27.10
2023-04-27T02:48:26.126Z,24.00
2023-04-27T02:50:52.553Z,25.70
2023-04-27T02:53:21.410Z,27.40
2023-04-27T02:55:53.065Z,25.80
2023-04-27T02:58:22.024Z,27.90
2023-04-27T03:00:54.988Z,27.40
2023-04-27T03:03:22.585Z,25.40
2023-04-27T03:05:49.436Z,27.70
2023-04-27T03:08:15.936Z,25.90
2023-04-27T03:10:42.549Z,32.10
2023-04-27T03:13:11.173Z,36.20
2023-04-27T03:15:40.479Z,28.60
2023-04-27T03:18:19.575Z,28.90
2023-04-27T03:21:18.062Z,26.40
2023-04-27T03:23:51.511Z,17.50
2023-04-27T03:26:18.206Z,30.20
2023-04-27T03:28:44.766Z,26.90
2023-04-27T03:31:16.037Z,32.50
2023-04-27T03:33:42.711Z,26.10
2023-04-27T03:36:14.782Z,32.50
2023-04-27T03:38:41.972Z,25.90
2023-04-27T03:41:12.957Z,27.30
2023-04-27T03:43:41.735Z,29.20
2023-04-27T03:46:08.530Z,21.70
2023-04-27T03:48:35.971Z,27.50
2023-04-27T03:51:02.833Z,27.60
2023-04-27T03:53:31.759Z,26.10
2023-04-27T03:56:03.827Z,29.50
2023-04-27T03:58:32.904Z,25.20
2023-04-27T04:01:18.231Z,24.40
2023-04-27T04:03:45.528Z,27.20
2023-04-27T04:06:12.418Z,27.30
2023-04-27T04:08:41.502Z,26.00
2023-04-27T04:11:08.452Z,28.60
2023-04-27T04:13:35.951Z,28.50
2023-04-27T04:16:06.371Z,22.80
2023-04-27T04:18:34.191Z,24.80
2023-04-27T04:21:01.193Z,26.60
2023-04-27T04:23:32.119Z,30.20
2023-04-27T04:26:03.535Z,24.10
2023-04-27T04:28:36.464Z,29.40
2023-04-27T04:31:08.939Z,35.30
2023-04-27T04:33:35.672Z,30.10
2023-04-27T04:36:05.348Z,31.40
2023-04-27T04:38:33.231Z,27.70
2023-04-27T04:41:06.703Z,30.30
2023-04-27T04:43:41.947Z,26.60
2023-04-27T04:46:08.610Z,31.60
2023-04-27T04:48:36.280Z,31.50
2023-04-27T04:51:05.673Z,27.60
2023-04-27T04:53:34.827Z,28.50
2023-04-27T04:56:12.260Z,33.50
2023-04-27T04:59:06.765Z,32.80
2023-04-27T05:01:38.880Z,28.00
2023-04-27T05:04:06.029Z,30.40
2023-04-27T05:06:33.231Z,29.10
2023-04-27T05:09:00.260Z,31.10
2023-04-27T05:11:26.811Z,33.60
2023-04-27T05:13:55.734Z,32.90
2023-04-27T05:16:25.905Z,29.60
2023-04-27T05:18:54.141Z,22.20
2023-04-27T05:21:21.548Z,23.40
2023-04-27T06:02:02.042Z,27.20
2023-04-27T06:04:29.273Z,16.90
2023-04-27T06:07:00.705Z,17.70
2023-04-27T06:09:29.499Z,21.00
2023-04-27T06:12:02.179Z,17.80
2023-04-27T06:17:00.317Z,21.10
2023-04-27T06:19:30.638Z,15.10
2023-04-27T06:21:57.543Z,19.10
2023-04-27T06:24:29.048Z,15.60
2023-04-27T06:26:56.435Z,16.10
2023-04-27T06:29:27.568Z,15.00
2023-04-27T06:31:54.397Z,15.40
2023-04-27T06:34:20.980Z,17.20
2023-04-27T06:36:51.435Z,14.00
2023-04-27T06:39:43.328Z,14.70
2023-04-27T06:42:21.680Z,14.30
2023-04-27T06:44:48.908Z,18.20
2023-04-27T07:56:32.626Z,9.40
2023-04-27T07:58:59.872Z,8.30
2023-04-27T08:01:26.656Z,9.80
2023-04-27T08:03:54.207Z,14.80
2023-04-27T08:06:22.017Z,11.90
2023-04-27T08:08:49.176Z,8.20
2023-04-27T08:11:16.121Z,8.20
2023-04-27T08:13:45.298Z,6.60
2023-04-27T08:16:16.766Z,9.20
2023-04-27T08:18:50.288Z,7.10
2023-04-27T08:21:19.757Z,9.50
2023-04-27T08:23:46.348Z,7.80
2023-04-27T08:26:18.316Z,9.90
2023-04-27T08:28:48.565Z,6.80
2023-04-27T08:31:21.426Z,12.60
2023-04-27T08:33:52.703Z,6.20
2023-04-27T08:36:23.758Z,7.90
2023-04-27T08:38:53.159Z,7.40
2023-04-27T08:41:22.223Z,7.20
2023-04-27T08:43:54.461Z,8.10
2023-04-27T08:46:26.403Z,7.30
2023-04-27T08:48:53.861Z,5.30
2023-04-27T08:51:27.028Z,6.60
2023-04-27T08:53:57.812Z,12.00
2023-04-27T08:56:32.094Z,9.00
2023-04-27T08:59:00.152Z,6.30
2023-04-27T09:01:26.869Z,7.10
2023-04-27T09:04:01.963Z,8.50
2023-04-27T09:06:35.026Z,7.10
2023-04-27T09:09:02.532Z,10.20
2023-04-27T09:11:30.866Z,5.40
2023-04-27T09:13:59.674Z,7.00
2023-04-27T09:16:30.016Z,5.60
2023-04-27T09:18:57.879Z,5.70
2023-04-27T09:21:28.886Z,10.20
2023-04-27T09:23:56.238Z,5.90
2023-04-27T09:26:25.321Z,5.60
2023-04-27T09:28:55.141Z,9.80
2023-04-27T09:31:22.210Z,5.40
2023-04-27T09:33:55.449Z,5.50
2023-04-27T09:36:24.704Z,10.00
2023-04-27T09:38:51.953Z,11.10
2023-04-27T09:41:19.197Z,4.50
2023-04-27T09:43:48.386Z,6.60
2023-04-27T09:46:15.579Z,6.50
2023-04-27T09:48:42.157Z,3.70
2023-04-27T09:51:08.732Z,4.50
2023-04-27T09:53:52.091Z,8.80
2023-04-27T09:56:57.302Z,6.20
2023-04-27T10:00:10.092Z,4.80
2023-04-27T10:02:53.593Z,7.00
2023-04-27T10:05:48.157Z,5.20
2023-04-27T10:08:14.966Z,5.00
2023-04-27T10:10:52.638Z,7.20
2023-04-27T10:13:24.045Z,4.80
2023-04-27T10:15:53.299Z,7.10
2023-04-27T10:18:32.883Z,7.50
2023-04-27T10:21:12.091Z,6.90
2023-04-27T10:23:47.658Z,5.30
2023-04-27T10:26:24.303Z,6.40
2023-04-27T10:29:03.833Z,4.90
2023-04-27T10:31:30.598Z,6.10
2023-04-27T10:34:08.275Z,8.30
2023-04-27T10:36:38.981Z,5.70
2023-04-27T10:39:25.571Z,5.80
2023-04-27T10:42:01.606Z,6.10
2023-04-27T10:44:30.757Z,4.60
2023-04-27T10:46:59.912Z,4.30
2023-04-27T10:49:29.554Z,4.50
2023-04-27T10:52:03.975Z,4.70
2023-04-27T10:54:31.287Z,5.30
2023-04-27T10:57:08.611Z,4.00
2023-04-27T11:55:35.352Z,4.80
2023-04-27T11:58:02.153Z,5.80
2023-04-27T12:00:28.878Z,6.70
2023-04-27T12:02:58.162Z,6.00
2023-04-27T12:05:27.965Z,9.00
2023-04-27T12:07:59.616Z,5.20
2023-04-27T12:10:28.668Z,7.40
2023-04-27T12:12:55.357Z,6.50
2023-04-27T12:15:21.950Z,6.80
2023-04-27T12:17:53.254Z,5.80
2023-04-27T12:20:20.449Z,5.00
2023-04-27T13:00:26.023Z,8.10
2023-04-27T13:27:22.538Z,5.80
2023-04-27T14:17:00.575Z,5.00
2023-04-27T14:19:34.394Z,5.00
2023-04-27T14:22:09.628Z,5.20
2023-04-27T14:27:08.794Z,4.90
2023-04-27T14:29:39.668Z,3.90
2023-04-27T14:32:09.411Z,4.30
2023-04-27T14:34:42.864Z,8.10
2023-04-27T14:37:13.387Z,7.00
2023-04-27T14:39:45.383Z,6.90
2023-04-27T14:42:13.959Z,7.90
2023-04-27T14:44:44.424Z,6.30
2023-04-27T14:47:15.253Z,10.50
2023-04-27T16:06:04.269Z,8.40
2023-04-27T16:08:37.215Z,6.90
2023-04-27T16:11:13.166Z,11.70
2023-04-27T16:13:41.858Z,7.20
2023-04-27T16:16:12.294Z,6.70
2023-04-27T16:18:40.349Z,8.90
2023-04-27T16:21:08.417Z,7.30
2023-04-27T16:23:39.140Z,11.50
2023-04-27T16:26:07.158Z,6.00
2023-04-27T16:28:39.968Z,8.00
2023-04-27T16:33:41.257Z,6.70
2023-04-27T16:36:11.820Z,10.70
2023-04-27T16:38:42.363Z,10.10
2023-04-27T16:56:13.748Z,10.60
2023-04-27T16:58:50.935Z,10.80
2023-04-27T17:41:01.180Z,16.70
2023-04-27T17:43:31.778Z,19.40
2023-04-27T17:46:10.554Z,10.30
2023-04-27T17:48:42.234Z,17.20
2023-04-27T17:51:13.011Z,11.40
2023-04-27T17:53:42.780Z,14.90
2023-04-27T17:56:19.581Z,16.10
2023-04-27T17:58:47.894Z,12.90
2023-04-27T18:01:21.932Z,16.00
2023-04-27T18:17:23.061Z,14.80
2023-04-27T18:20:07.025Z,15.00
2023-04-27T18:22:37.904Z,17.40
2023-04-27T18:25:09.312Z,18.50
2023-04-27T18:27:37.899Z,15.50
2023-04-27T18:30:09.093Z,20.50
2023-04-27T18:32:37.888Z,16.60
2023-04-27T18:35:08.483Z,16.60
2023-04-27T18:37:38.723Z,18.40
2023-04-27T18:40:08.235Z,16.60
2023-04-27T18:42:37.039Z,20.10
2023-04-27T18:45:05.876Z,19.30
2023-04-27T18:47:34.164Z,22.20
2023-04-27T18:50:02.340Z,19.30
2023-04-27T18:52:30.868Z,19.20
2023-04-27T18:54:59.253Z,16.60
2023-04-27T18:57:27.575Z,20.70
2023-04-27T18:59:56.217Z,20.40
2023-04-27T19:02:26.076Z,17.70
2023-04-27T19:05:10.894Z,18.90
2023-04-27T19:07:40.358Z,24.90
2023-04-27T19:10:09.304Z,22.00
2023-04-27T19:12:40.590Z,24.30
2023-04-27T19:15:09.429Z,23.80
2023-04-27T19:17:40.886Z,26.30
2023-04-27T19:20:09.743Z,23.50
2023-04-27T19:22:39.975Z,28.40
2023-04-27T19:25:11.309Z,28.50
2023-04-27T19:27:41.463Z,27.80
2023-04-27T19:32:43.535Z,29.70
2023-04-27T19:35:14.897Z,33.80
2023-04-27T19:37:43.510Z,38.70
2023-04-27T19:40:19.133Z,41.20
2023-04-27T19:42:49.981Z,45.80
2023-04-27T19:45:22.192Z,41.60
2023-04-27T19:47:50.548Z,38.90
2023-04-27T19:50:23.248Z,38.70
2023-04-27T19:52:52.214Z,35.10
2023-04-27T19:55:20.489Z,34.90
2023-04-27T19:57:48.558Z,32.90
2023-04-27T20:00:18.812Z,30.80
2023-04-27T20:02:46.826Z,32.80
2023-04-27T20:05:15.610Z,34.10
2023-04-27T20:07:44.267Z,34.20
2023-04-27T20:10:16.084Z,27.90
2023-04-27T20:12:55.462Z,26.70
2023-04-27T20:15:24.799Z,28.80
2023-04-27T20:17:53.382Z,32.30
2023-04-27T20:20:23.932Z,30.90
2023-04-27T20:22:51.979Z,32.50
2023-04-27T20:25:21.007Z,33.30
2023-04-27T20:27:51.418Z,33.70
2023-04-27T20:30:23.180Z,39.80
2023-04-27T20:32:51.338Z,38.80
2023-04-27T20:35:19.916Z,37.60
2023-04-27T20:37:48.327Z,39.40
2023-04-27T20:40:19.032Z,44.00
2023-04-27T20:42:51.960Z,38.00
2023-04-27T20:45:20.141Z,39.30
2023-04-27T20:47:48.260Z,37.30
2023-04-27T20:50:19.073Z,34.90
2023-04-27T20:52:47.588Z,36.80
2023-04-27T20:55:15.594Z,33.80
2023-04-27T20:57:43.942Z,36.20
2023-04-27T21:00:15.827Z,34.10
2023-04-27T21:02:44.235Z,41.90
2023-04-27T21:05:12.608Z,33.40
2023-04-27T21:07:40.806Z,30.10
2023-04-27T21:10:09.022Z,34.80
2023-04-27T21:12:37.105Z,32.70
2023-04-27T21:15:05.870Z,35.70
2023-04-27T21:17:34.085Z,35.40
2023-04-27T21:20:04.566Z,37.00
2023-04-27T21:22:32.886Z,33.40
2023-04-27T21:25:01.283Z,36.30
2023-04-27T21:27:29.361Z,34.30
2023-04-27T21:29:58.840Z,33.40
2023-04-27T21:32:29.391Z,38.80
2023-04-27T21:34:59.686Z,35.50
2023-04-27T21:37:30.544Z,38.50
2023-04-27T21:40:00.768Z,39.20
2023-04-27T21:42:28.651Z,42.20
2023-04-27T21:44:56.959Z,35.00
2023-04-27T21:47:24.952Z,37.90
2023-04-27T21:49:53.138Z,35.30
2023-04-27T21:52:26.180Z,37.70
2023-04-27T21:54:56.816Z,41.10
2023-04-27T21:57:24.727Z,36.50
2023-04-27T21:59:57.758Z,38.30
2023-04-27T22:02:30.855Z,43.00
2023-04-27T22:05:02.583Z,43.70
2023-04-27T22:07:32.593Z,45.20
2023-04-27T22:10:00.759Z,41.50
2023-04-27T22:12:28.782Z,43.20
2023-04-27T22:14:56.733Z,41.50
2023-04-27T22:17:25.127Z,41.40
2023-04-27T22:19:55.721Z,44.60
2023-04-27T22:22:23.707Z,42.00
2023-04-27T22:24:53.987Z,45.00
2023-04-27T22:27:21.881Z,37.80
2023-04-27T22:29:50.231Z,43.10
2023-04-27T22:32:18.210Z,48.80
2023-04-27T22:34:46.411Z,49.00
2023-04-27T22:37:16.887Z,62.70
2023-04-27T22:43:18.317Z,65.40
2023-04-27T22:45:46.477Z,60.50
2023-04-27T22:48:14.778Z,63.30
2023-04-27T22:50:43.027Z,55.90
2023-04-27T22:53:10.856Z,55.70
2023-04-27T22:55:41.142Z,57.10
2023-04-27T22:58:09.175Z,56.80
2023-04-27T23:00:37.013Z,58.10
2023-04-27T23:03:11.424Z,57.90
2023-04-27T23:05:42.533Z,55.60
2023-04-27T23:08:10.786Z,58.30
2023-04-27T23:10:38.961Z,54.10
2023-04-27T23:13:12.849Z,56.50
2023-04-27T23:15:43.210Z,52.70
2023-04-27T23:18:11.340Z,51.10
2023-04-27T23:20:39.263Z,55.00
2023-04-27T23:23:09.868Z,53.50
2023-04-27T23:25:37.737Z,57.60
2023-04-27T23:28:10.598Z,55.90
2023-04-27T23:30:38.514Z,56.30
2023-04-27T23:33:11.160Z,53.60
2023-04-27T23:35:41.737Z,58.90
2023-04-27T23:38:12.097Z,51.60
2023-04-27T23:40:42.598Z,56.70
2023-04-27T23:43:13.195Z,51.00
2023-04-27T23:45:41.260Z,54.00
2023-04-27T23:48:11.987Z,47.80
2023-04-27T23:50:42.599Z,57.90
2023-04-27T23:53:15.520Z,51.40
2023-04-27T23:55:46.254Z,51.40
2023-04-27T23:58:18.677Z,44.10
